createdAt,value
2022-11-23T00:00:30.924Z,77.50
2022-11-23T00:05:55.504Z,77.60
2022-11-23T00:10:59.555Z,77.40
2022-11-23T00:16:05.815Z,77.40
2022-11-23T00:21:12.249Z,77.50
2022-11-23T00:26:16.857Z,77.50
2022-11-23T00:31:21.994Z,77.60
2022-11-23T00:36:28.421Z,77.70
2022-11-23T00:41:32.366Z,77.90
2022-11-23T00:46:35.779Z,77.80
2022-11-23T00:51:40.563Z,77.80
2022-11-23T00:56:43.943Z,78.00
2022-11-23T01:01:47.343Z,78.00
2022-11-23T01:06:56.269Z,77.90
2022-11-23T01:11:59.627Z,77.90
2022-11-23T01:17:03.667Z,77.90
2022-11-23T01:22:08.674Z,77.90
2022-11-23T01:27:12.077Z,78.00
2022-11-23T01:32:15.460Z,77.90
2022-11-23T01:37:20.182Z,77.90
2022-11-23T01:42:23.978Z,77.90
2022-11-23T01:47:27.322Z,77.70
2022-11-23T01:52:32.655Z,77.60
2022-11-23T01:57:40.139Z,77.80
2022-11-23T02:02:48.455Z,77.80
2022-11-23T02:07:54.176Z,77.70
2022-11-23T02:12:59.816Z,78.00
2022-11-23T02:18:05.986Z,78.10
2022-11-23T02:23:19.784Z,78.00
2022-11-23T02:28:27.916Z,78.00
2022-11-23T02:33:31.761Z,77.90
2022-11-23T02:38:35.558Z,77.90
2022-11-23T02:49:01.430Z,77.80
2022-11-23T02:54:05.050Z,77.90
2022-11-23T02:59:10.156Z,78.00
2022-11-23T03:04:13.536Z,77.90
2022-11-23T03:09:16.928Z,78.80
2022-11-23T03:14:21.862Z,77.90
2022-11-23T03:19:25.256Z,78.00
2022-11-23T03:24:28.838Z,78.00
2022-11-23T03:29:33.849Z,78.00
2022-11-23T03:34:37.887Z,78.00
2022-11-23T03:39:47.016Z,77.90
2022-11-23T03:44:52.364Z,77.90
2022-11-23T03:49:55.756Z,78.20
2022-11-23T03:54:59.447Z,78.20
2022-11-23T04:00:06.191Z,78.10
2022-11-23T04:05:10.813Z,78.30
2022-11-23T04:10:15.369Z,78.50
2022-11-23T04:15:20.561Z,78.70
2022-11-23T04:20:24.120Z,78.70
2022-11-23T04:25:27.531Z,78.60
2022-11-23T04:30:32.544Z,78.50
2022-11-23T04:35:37.557Z,78.40
2022-11-23T04:40:41.158Z,78.40
2022-11-23T04:45:46.764Z,78.30
2022-11-23T04:50:54.335Z,78.30
2022-11-23T04:55:59.015Z,78.30
2022-11-23T05:01:04.564Z,78.30
2022-11-23T05:06:08.593Z,78.30
2022-11-23T05:11:12.206Z,78.30
2022-11-23T05:16:16.926Z,78.30
2022-11-23T05:21:20.373Z,78.30
2022-11-23T05:26:24.092Z,78.30
2022-11-23T05:31:28.842Z,78.20
2022-11-23T05:36:32.489Z,78.20
2022-11-23T05:41:35.837Z,78.20
2022-11-23T05:46:40.596Z,78.10
2022-11-23T05:51:44.010Z,78.10
2022-11-23T05:56:47.717Z,78.10
2022-11-23T06:01:52.530Z,79.00
2022-11-23T06:06:57.362Z,78.20
2022-11-23T06:12:00.674Z,78.30
2022-11-23T06:17:05.727Z,78.20
2022-11-23T06:22:09.645Z,78.20
2022-11-23T06:27:18.134Z,78.20
2022-11-23T06:32:23.277Z,78.20
2022-11-23T06:37:26.641Z,78.20
2022-11-23T06:42:39.464Z,78.00
2022-11-23T06:47:45.159Z,78.30
2022-11-23T06:52:48.601Z,78.40
2022-11-23T06:57:52.222Z,78.30
2022-11-23T07:02:57.500Z,78.20
2022-11-23T07:08:01.186Z,78.30
2022-11-23T07:13:06.640Z,78.40
2022-11-23T07:18:13.563Z,78.40
2022-11-23T07:23:16.996Z,78.40
2022-11-23T07:28:20.873Z,78.40
2022-11-23T07:33:25.736Z,78.40
2022-11-23T07:38:29.523Z,78.30
2022-11-23T07:43:32.933Z,78.50
2022-11-23T07:48:38.010Z,78.40
2022-11-23T07:53:41.639Z,78.50
2022-11-23T07:58:45.032Z,78.70
2022-11-23T08:03:50.272Z,78.60
2022-11-23T08:08:55.585Z,78.70
2022-11-23T08:13:59.463Z,78.60
2022-11-23T08:19:04.376Z,78.60
2022-11-23T08:24:08.071Z,78.50
2022-11-23T08:29:11.547Z,78.50
2022-11-23T08:34:17.999Z,78.50
2022-11-23T08:39:21.680Z,78.40
2022-11-23T08:44:25.113Z,78.40
2022-11-23T08:49:30.157Z,78.20
2022-11-23T08:54:34.321Z,78.50
2022-11-23T08:59:38.055Z,78.50
2022-11-23T09:04:43.208Z,78.50
2022-11-23T09:09:46.631Z,78.50
2022-11-23T09:14:50.065Z,78.40
2022-11-23T09:19:54.809Z,78.40
2022-11-23T09:24:58.294Z,78.30
2022-11-23T09:30:01.921Z,78.20
2022-11-23T09:35:08.202Z,78.30
2022-11-23T09:40:16.046Z,78.30
2022-11-23T09:45:24.218Z,78.20
2022-11-23T09:50:34.302Z,78.30
2022-11-23T09:55:41.560Z,78.30
2022-11-23T10:00:49.936Z,78.20
2022-11-23T10:06:04.564Z,78.20
2022-11-23T10:11:32.089Z,78.10
2022-11-23T10:16:45.134Z,78.10
2022-11-23T10:21:58.212Z,78.00
2022-11-23T10:27:02.561Z,78.10
2022-11-23T10:32:14.725Z,78.00
2022-11-23T10:37:19.884Z,78.00
2022-11-23T10:42:29.350Z,77.70
2022-11-23T10:47:39.191Z,77.70
2022-11-23T10:52:51.950Z,77.80
2022-11-23T10:57:56.189Z,77.60
2022-11-23T11:03:00.782Z,77.60
2022-11-23T11:08:20.957Z,77.60
2022-11-23T11:13:29.904Z,77.50
2022-11-23T11:18:35.830Z,77.40
2022-11-23T11:23:42.661Z,77.10
2022-11-23T11:28:50.115Z,77.40
2022-11-23T11:33:59.874Z,77.40
2022-11-23T11:39:18.711Z,77.30
2022-11-23T11:44:25.517Z,76.90
2022-11-23T11:49:33.267Z,76.80
2022-11-23T11:54:45.711Z,76.70
2022-11-23T11:59:52.918Z,76.70
2022-11-23T12:05:04.869Z,76.50
2022-11-23T12:10:16.575Z,76.00
2022-11-23T12:20:53.867Z,75.80
2022-11-23T12:26:13.644Z,75.40
2022-11-23T12:31:27.296Z,74.60
2022-11-23T12:36:50.284Z,74.20
2022-11-23T12:41:59.929Z,74.00
2022-11-23T12:47:15.868Z,74.40
2022-11-23T12:52:33.335Z,74.20
2022-11-23T12:57:42.323Z,74.00
2022-11-23T13:03:32.130Z,73.50
2022-11-23T13:09:08.957Z,73.60
2022-11-23T13:14:22.368Z,73.60
2022-11-23T13:19:37.415Z,73.30
2022-11-23T13:24:58.504Z,73.30
2022-11-23T13:30:11.071Z,73.10
2022-11-23T13:35:49.818Z,73.10
2022-11-23T13:40:53.518Z,73.20
2022-11-23T13:46:27.273Z,73.20
2022-11-23T13:51:32.583Z,73.50
2022-11-23T13:56:38.585Z,73.60
2022-11-23T14:02:24.227Z,73.80
2022-11-23T14:07:32.942Z,73.80
2022-11-23T14:12:45.767Z,73.60
2022-11-23T14:18:12.857Z,73.40
2022-11-23T14:23:38.732Z,73.60
2022-11-23T14:28:53.206Z,73.50
2022-11-23T14:34:05.399Z,73.40
2022-11-23T14:39:47.837Z,73.60
2022-11-23T14:44:51.873Z,73.70
2022-11-23T14:49:57.302Z,73.70
2022-11-23T14:55:05.036Z,73.70
2022-11-23T15:00:27.228Z,73.90
2022-11-23T15:05:35.363Z,73.90
2022-11-23T15:10:47.100Z,73.80
2022-11-23T15:15:53.590Z,73.80
2022-11-23T15:20:59.628Z,73.80
2022-11-23T15:26:07.308Z,73.90
2022-11-23T15:31:32.346Z,73.90
2022-11-23T15:36:39.263Z,73.90
2022-11-23T15:41:42.664Z,74.10
2022-11-23T15:46:49.136Z,73.90
2022-11-23T15:51:59.764Z,74.00
2022-11-23T15:57:04.499Z,74.10
2022-11-23T16:02:17.051Z,73.90
2022-11-23T16:07:24.192Z,74.00
2022-11-23T16:12:29.275Z,74.00
2022-11-23T16:17:32.920Z,74.00
2022-11-23T16:22:41.367Z,74.00
2022-11-23T16:27:44.873Z,74.00
2022-11-23T16:32:48.296Z,74.00
2022-11-23T16:37:53.094Z,73.90
2022-11-23T16:42:57.100Z,74.10
2022-11-23T16:48:02.683Z,74.40
2022-11-23T16:53:14.915Z,74.50
2022-11-23T16:58:18.614Z,74.60
2022-11-23T17:03:24.455Z,74.50
2022-11-23T17:08:29.202Z,74.60
2022-11-23T17:13:32.654Z,74.60
2022-11-23T17:18:36.064Z,74.70
2022-11-23T17:23:42.267Z,74.70
2022-11-23T17:28:45.712Z,74.70
2022-11-23T17:33:49.222Z,74.60
2022-11-23T17:38:55.644Z,74.80
2022-11-23T17:44:00.019Z,74.90
2022-11-23T17:49:03.504Z,75.20
2022-11-23T17:54:08.328Z,75.40
2022-11-23T17:59:11.867Z,75.30
2022-11-23T18:04:15.619Z,75.10
2022-11-23T18:09:20.445Z,75.10
2022-11-23T18:14:28.682Z,75.30
2022-11-23T18:19:32.404Z,75.30
2022-11-23T18:24:37.355Z,75.60
2022-11-23T18:29:41.264Z,75.70
2022-11-23T18:34:44.732Z,75.50
2022-11-23T18:39:49.694Z,75.70
2022-11-23T18:44:53.390Z,75.50
2022-11-23T18:49:59.677Z,75.70
2022-11-23T18:55:08.414Z,75.70
2022-11-23T19:00:15.667Z,75.70
2022-11-23T19:05:19.367Z,75.70
2022-11-23T19:10:24.341Z,75.60
2022-11-23T19:15:27.984Z,75.60
2022-11-23T19:20:31.425Z,75.70
2022-11-23T19:25:36.141Z,75.80
2022-11-23T19:30:39.502Z,75.70
2022-11-23T19:35:42.862Z,75.60
2022-11-23T19:40:55.203Z,75.60
2022-11-23T19:45:59.698Z,76.40
2022-11-23T19:51:04.805Z,75.70
2022-11-23T19:56:13.098Z,75.90
2022-11-23T20:01:19.181Z,75.90
2022-11-23T20:06:26.770Z,76.20
2022-11-23T20:11:33.576Z,76.20
2022-11-23T20:16:37.161Z,76.10
2022-11-23T20:21:40.738Z,75.90
2022-11-23T20:26:45.628Z,76.00
2022-11-23T20:31:51.102Z,75.90
2022-11-23T20:36:54.541Z,75.90
2022-11-23T20:41:59.615Z,75.90
2022-11-23T20:47:03.680Z,75.80
2022-11-23T20:52:07.400Z,75.80
2022-11-23T20:57:12.164Z,75.80
2022-11-23T21:02:16.080Z,75.80
2022-11-23T21:07:20.160Z,75.60
2022-11-23T21:12:47.613Z,75.80
2022-11-23T21:17:53.863Z,75.70
2022-11-23T21:22:57.998Z,75.70
2022-11-23T21:28:03.392Z,75.80
2022-11-23T21:33:06.852Z,75.70
2022-11-23T21:38:10.223Z,75.80
2022-11-23T21:43:14.941Z,75.80
2022-11-23T21:48:18.317Z,75.80
2022-11-23T21:53:21.710Z,75.70
2022-11-23T21:58:26.468Z,75.70
2022-11-23T22:09:11.703Z,75.40
2022-11-23T22:14:19.754Z,75.30
2022-11-23T22:19:23.848Z,75.00
2022-11-23T22:24:27.811Z,75.10
2022-11-23T22:29:33.260Z,75.50
2022-11-23T22:34:38.234Z,75.70
2022-11-23T22:39:42.198Z,75.60
2022-11-23T22:44:47.592Z,75.90
2022-11-23T22:49:51.910Z,75.70
2022-11-23T22:54:55.898Z,76.10
2022-11-23T23:00:01.297Z,76.20
2022-11-23T23:05:05.661Z,76.20
2022-11-23T23:10:10.736Z,76.10
2022-11-23T23:15:16.290Z,76.10
2022-11-23T23:20:20.327Z,76.00
2022-11-23T23:25:24.339Z,75.90
2022-11-23T23:30:29.742Z,75.80
2022-11-23T23:35:33.856Z,75.80
2022-11-23T23:40:37.841Z,75.70
2022-11-23T23:45:43.309Z,75.70
2022-11-23T23:50:47.323Z,75.80
2022-11-23T23:55:58.986Z,75.80
